Sant Hilari Sacalm





Hora UTC 04:40
Temperatura 8.5 ºC
Humitat 92.8 %
Pressió 1018.3 hPa
Pluja 0.0 mm
Velocitat vent 3.7 km/h
Direcció vent WSW
Radiació solar 0.1 W/m²

Dades diàries 2020-09-29



Hora UTC (hivern +1h; estiu +2h)
Temperatura (ºC) Humitat (%) Pressió (hPa) Velocitat vent (km/h) Precipitació (mm) Radiació solar (W/m²)
Hora UTC Aire Humitat Pressió Vel. Dir. Vel. Max Dir. Intent. màx 5 min. Rad. Sol.
00:05 9.6 91.7 1018.7 2.3 SW 2.3 SW 0.0 0.1
00:10 9.6 91.6 1018.8 5.7 WSW 8.8 SW 0.0 0.1
00:15 9.6 91.9 1018.7 2.6 WSW 8.8 WSW 0.0 0.1
00:20 9.7 91.9 1018.8 3.5 SW 6.1 WSW 0.0 0.1
00:25 9.8 91.1 1018.8 3.3 WSW 6.1 WSW 0.0 0.1
00:30 9.9 91.2 1018.8 2.1 WSW 8.8 SW 0.0 0.1
00:35 9.9 90.7 1018.7 3.0 WSW 6.1 WSW 0.0 0.1
00:40 9.9 90.6 1018.6 3.5 WSW 8.8 WSW 0.0 0.1
00:45 9.7 90.9 1018.7 7.2 WSW 11.5 WSW 0.0 0.1
00:50 9.5 92.1 1018.6 3.5 WSW 8.8 WSW 0.0 0.1
00:55 9.6 92.2 1018.5 1.6 WSW 6.1 SSW 0.0 0.1
01:00 9.6 91.5 1018.6 3.7 SSW 8.8 WSW 0.0 0.1
01:05 9.7 91.4 1018.6 3.0 SW 8.8 SSW 0.0 0.1
01:10 9.7 91.3 1018.6 3.0 SW 6.1 SSW 0.0 0.1
01:15 9.8 91.4 1018.6 2.3 WSW 6.1 W 0.0 0.1
01:20 9.8 91.0 1018.5 1.7 SW 6.1 SSW 0.0 0.1
01:25 9.8 90.6 1018.5 2.4 SW 6.1 SSW 0.0 0.1
01:30 9.8 90.7 1018.5 2.2 SW 6.1 SSW 0.0 0.1
01:35 9.7 90.8 1018.4 1.6 WSW 6.1 W 0.0 0.1
01:40 9.7 90.9 1018.4 4.5 SW 8.8 WSW 0.0 0.1
01:45 9.5 91.4 1018.4 2.9 SW 8.8 SW 0.0 0.1
01:50 9.5 91.9 1018.4 0.1 SSW 3.4 SSW 0.0 0.1
01:55 9.4 92.1 1018.4 2.2 S 6.1 S 0.0 0.1
02:00 9.5 92.0 1018.5 2.5 SW 6.1 S 0.0 0.1
02:05 9.5 92.1 1018.5 1.5 SW 6.1 SW 0.0 0.1
02:10 9.4 92.2 1018.4 1.5 WSW 6.1 W 0.0 0.1
02:15 9.4 92.4 1018.3 1.9 SW 6.1 SW 0.0 0.1
02:20 9.4 92.4 1018.5 3.8 WSW 6.1 WSW 0.0 0.1
02:25 9.4 92.0 1018.5 4.1 W 6.1 W 0.0 0.1
02:30 9.4 91.8 1018.4 2.9 WSW 6.1 WSW 0.0 0.1
02:35 9.3 91.5 1018.4 2.6 W 6.1 W 0.0 0.1
02:40 9.2 92.1 1018.3 1.1 WSW 3.4 SW 0.0 0.1
02:45 9.1 92.5 1018.2 0.5 SW 6.1 SW 0.0 0.1
02:50 9.0 92.3 1018.2 2.8 SW 6.1 WSW 0.0 0.1
02:55 8.6 92.4 1018.2 3.0 W 8.8 WSW 0.0 0.1
03:00 8.6 93.6 1018.2 0.9 WSW 6.1 W 0.0 0.1
03:05 8.7 94.1 1018.1 3.6 WSW 6.1 WSW 0.0 0.1
03:10 8.6 94.0 1018.1 2.5 WSW 8.8 W 0.0 0.1
03:15 8.6 94.4 1018.1 0.1 WNW 3.4 WNW 0.0 0.1
03:20 8.6 94.1 1018.1 0.3 SSW 3.4 SSW 0.0 0.1
03:25 8.7 94.0 1018.1 4.1 WSW 8.8 WSW 0.0 0.1
03:30 8.7 93.6 1018.2 3.0 SSW 6.1 S 0.0 0.1
03:35 8.6 93.7 1018.2 1.5 WSW 6.1 WSW 0.0 0.1
03:40 8.7 93.8 1018.2 2.1 WSW 6.1 W 0.0 0.1
03:45 8.7 93.1 1018.2 3.5 WSW 6.1 SW 0.0 0.1
03:50 8.6 93.0 1018.1 1.5 SW 6.1 W 0.0 0.1
03:55 8.6 92.9 1018.1 2.1 WSW 6.1 SW 0.0 0.1
04:00 8.6 93.0 1018.1 1.1 WSW 6.1 WSW 0.0 0.1
04:05 8.6 93.0 1018.1 1.7 SW 6.1 SW 0.0 0.1
04:10 8.7 93.0 1018.1 0.5 WSW 6.1 W 0.0 0.1
04:15 8.7 93.0 1018.1 3.7 WSW 8.8 WSW 0.0 0.1
04:20 8.7 93.4 1018.3 2.3 SW 6.1 W 0.0 0.1
04:25 8.7 93.2 1018.2 2.8 WSW 6.1 WSW 0.0 0.1
04:30 8.7 93.0 1018.2 1.8 SSW 6.1 SSW 0.0 0.1
04:35 8.6 92.7 1018.2 3.1 WSW 6.1 SW 0.0 0.1
04:40 8.5 92.8 1018.3 3.7 WSW 8.8 WSW 0.0 0.1
Màxima 9.9 94.4 1018.8 7.2 WSW 11.5 WSW 0.0 0.1
Mínima 8.4 90.6 1018.1
Total 0.0